createdAt,value
2018-12-26T00:05:00.869Z,10.20
2018-12-26T00:10:05.341Z,11.40
2018-12-26T00:15:09.744Z,10.03
2018-12-26T00:20:14.155Z,8.33
2018-12-26T00:25:18.789Z,8.77
2018-12-26T00:30:23.041Z,9.90
2018-12-26T00:35:27.716Z,10.70
2018-12-26T00:40:51.046Z,9.63
2018-12-26T00:45:55.311Z,10.53
2018-12-26T00:50:59.555Z,10.93
2018-12-26T00:56:10.472Z,10.27
2018-12-26T01:01:29.155Z,10.27
2018-12-26T01:06:33.510Z,10.77
2018-12-26T01:11:37.842Z,9.57
2018-12-26T01:16:42.096Z,9.97
2018-12-26T01:21:46.372Z,8.50
2018-12-26T01:26:50.706Z,7.43
2018-12-26T01:31:55.081Z,8.40
2018-12-26T01:36:59.326Z,9.37
2018-12-26T01:42:03.813Z,9.00
2018-12-26T01:47:08.079Z,9.17
2018-12-26T01:52:12.352Z,8.07
2018-12-26T01:57:16.803Z,9.37
2018-12-26T02:02:21.142Z,9.43
2018-12-26T02:07:25.501Z,10.03
2018-12-26T02:12:29.771Z,8.50
2018-12-26T02:17:34.135Z,10.33
2018-12-26T02:22:38.499Z,11.73
2018-12-26T02:27:42.801Z,14.63
2018-12-26T02:32:47.351Z,13.87
2018-12-26T02:37:51.700Z,13.47
2018-12-26T02:42:56.069Z,15.57
2018-12-26T02:48:00.324Z,13.47
2018-12-26T02:53:04.642Z,11.63
2018-12-26T02:58:22.124Z,10.40
2018-12-26T03:03:26.425Z,11.00
2018-12-26T03:08:30.675Z,9.30
2018-12-26T03:13:35.062Z,9.97
2018-12-26T03:18:39.316Z,9.03
2018-12-26T03:23:43.571Z,8.00
2018-12-26T03:28:47.863Z,7.77
2018-12-26T03:34:11.546Z,8.27
2018-12-26T03:39:15.802Z,8.43
2018-12-26T03:44:40.401Z,8.03
2018-12-26T03:49:44.924Z,8.57
2018-12-26T03:54:49.294Z,8.83
2018-12-26T04:00:06.541Z,7.50
2018-12-26T04:05:10.783Z,8.80
2018-12-26T04:10:34.119Z,7.27
2018-12-26T04:15:38.518Z,7.97
2018-12-26T04:20:42.779Z,7.60
2018-12-26T04:25:47.071Z,7.30
2018-12-26T04:30:51.603Z,7.30
2018-12-26T04:35:55.964Z,7.70
2018-12-26T04:41:00.392Z,7.70
2018-12-26T04:46:23.747Z,8.27
2018-12-26T04:51:47.166Z,8.37
2018-12-26T04:57:10.673Z,8.07
2018-12-26T05:02:15.257Z,8.13
2018-12-26T05:07:19.978Z,8.30
2018-12-26T05:12:43.570Z,8.57
2018-12-26T05:17:47.890Z,7.40
2018-12-26T05:22:52.302Z,7.50
2018-12-26T05:27:56.667Z,7.23
2018-12-26T05:33:01.183Z,7.40
2018-12-26T05:38:24.610Z,7.47
2018-12-26T05:43:48.229Z,6.37
2018-12-26T05:48:52.502Z,6.53
2018-12-26T05:53:59.184Z,6.63
2018-12-26T05:59:22.543Z,7.60
2018-12-26T06:04:26.834Z,6.80
2018-12-26T06:09:31.098Z,7.80
2018-12-26T06:14:35.387Z,7.83
2018-12-26T06:19:39.767Z,8.43
2018-12-26T06:24:44.000Z,8.00
2018-12-26T06:29:48.258Z,8.93
2018-12-26T06:34:52.682Z,8.17
2018-12-26T06:40:16.100Z,9.00
2018-12-26T06:45:39.424Z,9.30
2018-12-26T06:50:43.677Z,7.23
2018-12-26T06:56:07.367Z,6.90
2018-12-26T07:01:11.644Z,7.97
2018-12-26T07:06:28.531Z,9.13
2018-12-26T07:11:32.967Z,9.67
2018-12-26T07:16:37.332Z,9.70
2018-12-26T07:21:41.762Z,11.17
2018-12-26T07:26:46.020Z,14.00
2018-12-26T07:32:09.370Z,9.47
2018-12-26T07:37:13.891Z,7.70
2018-12-26T07:42:18.352Z,9.07
2018-12-26T07:47:41.686Z,14.47
2018-12-26T07:52:46.165Z,11.93
2018-12-26T07:57:50.713Z,13.93
2018-12-26T08:03:14.076Z,9.67
2018-12-26T08:08:18.523Z,11.80
2018-12-26T08:13:23.097Z,14.00
2018-12-26T08:18:27.386Z,11.40
2018-12-26T08:23:31.721Z,12.40
2018-12-26T08:28:36.039Z,12.20
2018-12-26T08:33:40.445Z,11.23
2018-12-26T08:38:44.707Z,9.37
2018-12-26T08:43:49.066Z,11.37
2018-12-26T08:48:53.352Z,11.07
2018-12-26T08:53:57.696Z,9.27
2018-12-26T08:59:21.071Z,10.87
2018-12-26T09:04:25.464Z,8.30
2018-12-26T09:09:29.899Z,9.23
2018-12-26T09:14:34.240Z,16.73
2018-12-26T09:19:57.578Z,9.20
2018-12-26T09:25:01.876Z,12.10
2018-12-26T09:30:06.944Z,11.13
2018-12-26T09:35:30.532Z,14.30
2018-12-26T09:40:54.170Z,9.97
2018-12-26T09:46:17.600Z,16.03
2018-12-26T09:51:22.109Z,11.27
2018-12-26T09:56:26.536Z,11.60
2018-12-26T10:01:31.046Z,20.77
2018-12-26T10:06:35.759Z,12.10
2018-12-26T10:11:40.277Z,11.43
2018-12-26T10:17:03.695Z,14.67
2018-12-26T10:22:08.003Z,10.60
2018-12-26T10:27:12.457Z,12.47
2018-12-26T10:32:17.750Z,17.27
2018-12-26T10:37:22.317Z,22.33
2018-12-26T10:42:26.675Z,23.77
2018-12-26T10:47:31.341Z,11.23
2018-12-26T10:52:54.654Z,26.67
2018-12-26T10:57:59.032Z,15.23
2018-12-26T11:03:03.467Z,31.80
2018-12-26T11:08:07.917Z,14.27
2018-12-26T11:13:12.488Z,13.27
2018-12-26T11:18:16.921Z,13.13
2018-12-26T11:23:40.242Z,12.87
2018-12-26T11:29:03.568Z,12.13
2018-12-26T11:34:07.839Z,12.57
2018-12-26T11:39:31.345Z,12.83
2018-12-26T11:44:35.840Z,15.57
2018-12-26T11:49:40.936Z,13.90
2018-12-26T11:55:04.326Z,12.87
2018-12-26T12:00:08.690Z,12.30
2018-12-26T12:05:13.180Z,12.53
2018-12-26T12:10:17.618Z,11.23
2018-12-26T12:15:22.052Z,12.50
2018-12-26T12:20:26.482Z,11.47
2018-12-26T12:25:32.023Z,9.97
2018-12-26T12:30:55.357Z,7.70
2018-12-26T12:35:59.819Z,8.40
2018-12-26T12:41:04.181Z,11.67
2018-12-26T12:46:27.491Z,9.60
2018-12-26T12:51:50.822Z,7.97
2018-12-26T12:56:55.239Z,8.83
2018-12-26T13:01:59.722Z,8.33
2018-12-26T13:07:04.191Z,8.77
2018-12-26T13:12:10.979Z,7.60
2018-12-26T13:17:15.442Z,12.70
2018-12-26T13:22:19.917Z,8.70
2018-12-26T13:27:43.242Z,11.43
2018-12-26T13:32:47.689Z,11.53
2018-12-26T13:38:11.200Z,9.53
2018-12-26T13:43:34.609Z,8.93
2018-12-26T13:48:58.294Z,8.43
2018-12-26T13:54:03.013Z,9.23
2018-12-26T13:59:07.276Z,6.80
2018-12-26T14:04:11.541Z,10.83
2018-12-26T14:09:34.873Z,8.80
2018-12-26T14:14:58.181Z,9.87
2018-12-26T14:20:02.473Z,8.50
2018-12-26T14:25:07.542Z,15.07
2018-12-26T14:30:30.868Z,7.93
2018-12-26T14:35:35.214Z,6.80
2018-12-26T14:40:39.726Z,6.63
2018-12-26T14:46:03.150Z,6.20
2018-12-26T14:51:07.583Z,5.97
2018-12-26T14:56:31.189Z,5.80
2018-12-26T15:01:35.744Z,5.73
2018-12-26T15:06:59.073Z,5.60
2018-12-26T15:12:03.343Z,5.53
2018-12-26T15:17:07.773Z,5.77
2018-12-26T15:22:26.465Z,5.33
2018-12-26T15:27:30.865Z,6.03
2018-12-26T15:32:35.135Z,6.90
2018-12-26T15:37:39.646Z,6.83
2018-12-26T15:43:02.957Z,6.60
2018-12-26T15:53:19.195Z,6.20
2018-12-26T15:58:42.785Z,5.83
2018-12-26T16:04:06.114Z,7.57
2018-12-26T16:09:10.354Z,7.17
2018-12-26T16:14:14.666Z,9.27
2018-12-26T16:19:38.319Z,6.30
2018-12-26T16:24:55.610Z,7.60
2018-12-26T16:29:59.926Z,7.13
2018-12-26T16:35:24.731Z,7.10
2018-12-26T16:40:48.068Z,7.37
2018-12-26T16:45:52.317Z,7.77
2018-12-26T16:50:56.693Z,7.73
2018-12-26T16:56:01.096Z,7.77
2018-12-26T17:01:05.493Z,9.30
2018-12-26T17:06:09.966Z,8.97
2018-12-26T17:11:14.363Z,8.87
2018-12-26T17:16:18.777Z,9.10
2018-12-26T17:21:23.211Z,9.13
2018-12-26T17:26:27.706Z,8.33
2018-12-26T17:31:32.089Z,9.03
2018-12-26T17:36:36.592Z,9.63
2018-12-26T17:41:40.989Z,9.90
2018-12-26T17:46:46.217Z,9.40
2018-12-26T17:52:09.543Z,7.77
2018-12-26T17:57:18.396Z,9.33
2018-12-26T18:02:43.169Z,8.93
2018-12-26T18:08:07.260Z,8.80
2018-12-26T18:18:22.384Z,10.40
2018-12-26T18:23:26.762Z,12.10
2018-12-26T18:28:31.294Z,14.87
2018-12-26T18:33:35.621Z,14.17
2018-12-26T18:38:39.870Z,14.13
2018-12-26T18:43:44.194Z,14.53
2018-12-26T18:48:48.639Z,15.53
2018-12-26T18:54:12.035Z,16.57
2018-12-26T18:59:16.378Z,15.20
2018-12-26T19:04:39.719Z,16.33
2018-12-26T19:09:44.400Z,15.47
2018-12-26T19:15:08.266Z,14.87
2018-12-26T19:20:12.734Z,13.00
2018-12-26T19:25:17.108Z,11.23
2018-12-26T19:30:21.393Z,12.50
2018-12-26T19:35:25.667Z,13.00
2018-12-26T19:40:30.113Z,15.87
2018-12-26T19:45:34.544Z,15.43
2018-12-26T19:50:38.803Z,14.03
2018-12-26T19:55:43.163Z,16.00
2018-12-26T20:00:47.512Z,15.53
2018-12-26T20:05:54.375Z,15.60
2018-12-26T20:11:00.089Z,15.13
2018-12-26T20:16:04.362Z,15.57
2018-12-26T20:21:27.679Z,17.23
2018-12-26T20:26:32.469Z,16.63
2018-12-26T20:31:37.481Z,17.40
2018-12-26T20:36:41.928Z,18.73
2018-12-26T20:41:47.134Z,15.57
2018-12-26T20:46:51.818Z,16.00
2018-12-26T20:52:16.053Z,25.23
2018-12-26T20:57:39.510Z,19.93
2018-12-26T21:02:44.395Z,21.63
2018-12-26T21:07:49.792Z,18.37
2018-12-26T21:12:54.197Z,19.03
2018-12-26T21:18:17.546Z,17.47
2018-12-26T21:23:40.969Z,17.03
2018-12-26T21:29:04.994Z,16.60
2018-12-26T21:34:23.685Z,18.13
2018-12-26T21:39:42.312Z,17.13
2018-12-26T21:44:46.763Z,15.47
2018-12-26T21:49:52.100Z,15.57
2018-12-26T21:54:56.630Z,13.53
2018-12-26T22:00:01.143Z,15.27
2018-12-26T22:05:24.787Z,17.17
2018-12-26T22:10:31.006Z,17.77
2018-12-26T22:15:35.786Z,16.93
2018-12-26T22:20:40.612Z,16.80
2018-12-26T22:25:45.330Z,17.17
2018-12-26T22:31:08.672Z,16.33
2018-12-26T22:36:16.078Z,17.13
2018-12-26T22:41:20.516Z,17.17
2018-12-26T22:46:24.794Z,17.80
2018-12-26T22:51:29.204Z,18.03
2018-12-26T22:56:33.625Z,16.47
2018-12-26T23:01:38.068Z,15.87
2018-12-26T23:07:01.668Z,15.50
2018-12-26T23:12:05.998Z,14.40
2018-12-26T23:17:10.408Z,14.87
2018-12-26T23:22:15.269Z,14.97
2018-12-26T23:27:38.613Z,15.47
2018-12-26T23:32:47.007Z,16.83
2018-12-26T23:37:50.013Z,16.53
2018-12-26T23:42:54.385Z,14.53
2018-12-26T23:48:01.315Z,13.87
2018-12-26T23:53:05.836Z,14.83
2018-12-26T23:58:11.583Z,16.00
